Aérodrome :
LOGIN :

S'inscrire | Disclaimer

   EN    FR    IT 

 










Légende :    VFR   VFR Marginal   IFR   IFR Intensif   IFR Très Intensif
Visi : 
Plafond : 
>= 8 km
>= 3000ft
5 à 8 km
1000 à 3000 ft
1500m à 5 km
500 à 1000 ft
800 à 1500m
200 à 500 ft
< 800m
< 200 ft
Symboles :   Orages  Brouillard  Fortes neiges  Fortes précipitations  Vent > 20 kt
SIGMETs :   Divers  Orages  Givrage  Turbulence  Onde Orograph.  Cendres Volcan.






- Altitude de l'aérodrome : 191 ft
- Code IATA : RNB


ESDF - Ronneby

DERNIER METAR :
  • 201820Z 30001KT CAVOK 10/10 Q1013

METARs EXPIRÉS :
  • 201750Z 00000KT 9999 MIFG NSC 11/11 Q1013
  • 201720Z 00000KT CAVOK 11/11 Q1013
  • 201650Z 17002KT 9000 BR BKN100 11/11 Q1012
  • 201620Z 00000KT CAVOK 12/11 Q1012
  • 201550Z 26002KT CAVOK 12/12 Q1012

TAF TAF ESDF
Valide du 20 à 18h jusqu'au 20 à 22h UTC


201730Z 2018/2022 VRB02KT 9999 MIFG NSC
PROB40 2018/2022 0500 FG VV002



MET'MAP, la Météo Aéronautique d'un coup d'oeil ! - Copyright ORBIFLY Décembre 2007 - Disclaimer

ORBIFLY MET'MAP TEAM :

Programmation & Développement : Alexandra Zaïnal
Conception & Développement : Baudouin d'Aumeries
Co-Programmation & Développement : Marc-Olivier Méhu
Soutien technique & logistique : Manuel Goepfert

Contact : metmap@orbifly.com




SOURCES & CREDITS :

   NOAA